createdAt,value
2022-11-29T00:02:20.537Z,100459.60
2022-11-29T00:04:53.282Z,100459.40
2022-11-29T00:07:26.089Z,100461.00
2022-11-29T00:09:58.730Z,100456.20
2022-11-29T00:12:31.305Z,100452.80
2022-11-29T00:15:04.015Z,100453.80
2022-11-29T00:17:37.274Z,100456.60
2022-11-29T00:20:12.488Z,100459.40
2022-11-29T00:22:44.939Z,100462.00
2022-11-29T00:25:17.852Z,100457.20
2022-11-29T00:27:51.515Z,100460.00
2022-11-29T00:30:25.005Z,100455.00
2022-11-29T00:32:57.691Z,100457.40
2022-11-29T00:35:30.362Z,100455.80
2022-11-29T00:38:02.938Z,100460.60
2022-11-29T00:40:35.674Z,100459.80
2022-11-29T00:43:08.234Z,100451.40
2022-11-29T00:45:40.850Z,100453.20
2022-11-29T00:48:13.360Z,100452.20
2022-11-29T00:50:45.958Z,100453.00
2022-11-29T00:53:18.511Z,100453.60
2022-11-29T00:55:52.366Z,100453.40
2022-11-29T00:58:25.949Z,100454.20
2022-11-29T01:00:58.694Z,100448.80
2022-11-29T01:03:31.699Z,100447.40
2022-11-29T01:06:08.502Z,100443.40
2022-11-29T01:08:41.642Z,100448.80
2022-11-29T01:11:18.167Z,100445.80
2022-11-29T01:13:52.186Z,100445.40
2022-11-29T01:16:25.514Z,100438.40
2022-11-29T01:18:58.606Z,100442.80
2022-11-29T01:21:31.809Z,100448.20
2022-11-29T01:24:04.662Z,100446.40
2022-11-29T01:26:37.212Z,100451.40
2022-11-29T01:29:13.315Z,100445.00
2022-11-29T01:31:45.851Z,100449.20
2022-11-29T01:34:18.279Z,100451.60
2022-11-29T01:36:50.791Z,100452.00
2022-11-29T01:39:23.243Z,100450.20
2022-11-29T01:41:55.774Z,100446.00
2022-11-29T01:45:07.970Z,100446.80
2022-11-29T01:47:44.994Z,100450.80
2022-11-29T01:50:17.796Z,100449.60
2022-11-29T01:52:50.720Z,100451.20
2022-11-29T01:58:29.609Z,100450.80
2022-11-29T02:01:03.247Z,100450.60
2022-11-29T02:03:36.013Z,100445.00
2022-11-29T02:06:09.143Z,100439.00
2022-11-29T02:08:44.135Z,100441.00
2022-11-29T02:12:07.444Z,100435.00
2022-11-29T02:14:55.315Z,100439.40
2022-11-29T02:17:43.426Z,100444.20
2022-11-29T02:20:46.050Z,100442.40
2022-11-29T02:23:48.951Z,100441.60
2022-11-29T02:26:44.547Z,100442.40
2022-11-29T02:30:01.770Z,100444.00
2022-11-29T02:33:29.161Z,100439.80
2022-11-29T02:36:42.546Z,100443.40
2022-11-29T02:39:52.943Z,100449.00
2022-11-29T02:42:56.804Z,100445.80
2022-11-29T02:45:59.835Z,100452.20
2022-11-29T02:48:53.637Z,100444.40
2022-11-29T02:51:35.461Z,100449.40
2022-11-29T02:54:16.904Z,100446.80
2022-11-29T02:56:56.910Z,100454.80
2022-11-29T02:59:52.048Z,100456.60
2022-11-29T03:02:34.776Z,100455.00
2022-11-29T03:05:20.045Z,100457.80
2022-11-29T03:08:01.848Z,100455.00
2022-11-29T03:10:47.314Z,100464.80
2022-11-29T03:13:26.720Z,100464.80
2022-11-29T03:16:10.116Z,100466.20
2022-11-29T03:19:01.297Z,100466.00
2022-11-29T03:21:47.565Z,100464.40
2022-11-29T03:24:27.147Z,100464.40
2022-11-29T03:27:07.740Z,100466.40
2022-11-29T03:29:46.973Z,100463.20
2022-11-29T03:32:28.875Z,100473.20
2022-11-29T03:35:08.682Z,100473.00
2022-11-29T03:37:51.658Z,100475.80
2022-11-29T03:40:30.643Z,100478.60
2022-11-29T03:43:08.943Z,100477.60
2022-11-29T03:45:50.230Z,100479.40
2022-11-29T03:48:29.043Z,100480.80
2022-11-29T03:51:06.977Z,100479.20
2022-11-29T03:53:49.770Z,100476.00
2022-11-29T03:56:33.479Z,100472.80
2022-11-29T03:59:26.471Z,100476.00
2022-11-29T04:02:38.552Z,100483.20
2022-11-29T04:05:47.295Z,100477.20
2022-11-29T04:08:54.236Z,100475.80
2022-11-29T04:12:05.826Z,100477.40
2022-11-29T04:15:18.690Z,100480.00
2022-11-29T04:18:48.037Z,100483.80
2022-11-29T04:21:57.158Z,100480.00
2022-11-29T04:25:06.730Z,100490.80
2022-11-29T04:27:54.586Z,100493.60
2022-11-29T04:30:29.220Z,100496.80
2022-11-29T04:33:47.978Z,100497.40
2022-11-29T04:36:55.638Z,100499.20
2022-11-29T04:39:51.966Z,100499.40
2022-11-29T04:43:02.543Z,100508.00
2022-11-29T04:46:14.438Z,100507.80
2022-11-29T04:49:09.798Z,100509.60
2022-11-29T04:52:05.663Z,100510.20
2022-11-29T04:54:47.217Z,100518.00
2022-11-29T04:57:29.408Z,100516.00
2022-11-29T05:00:10.492Z,100522.20
2022-11-29T05:02:55.544Z,100518.80
2022-11-29T05:05:42.495Z,100517.80
2022-11-29T05:08:34.588Z,100526.40
2022-11-29T05:11:20.827Z,100523.80
2022-11-29T05:14:06.286Z,100523.00
2022-11-29T05:17:01.066Z,100515.20
2022-11-29T05:20:00.960Z,100520.60
2022-11-29T05:22:48.931Z,100525.20
2022-11-29T05:25:43.852Z,100531.20
2022-11-29T05:28:26.854Z,100530.20
2022-11-29T05:31:20.123Z,100531.80
2022-11-29T05:34:20.124Z,100532.80
2022-11-29T05:37:02.566Z,100530.80
2022-11-29T05:39:47.990Z,100532.40
2022-11-29T05:42:43.030Z,100540.80
2022-11-29T05:45:21.856Z,100547.00
2022-11-29T05:48:03.326Z,100543.60
2022-11-29T05:50:42.628Z,100544.00
2022-11-29T05:53:26.246Z,100543.20
2022-11-29T05:56:10.571Z,100544.80
2022-11-29T05:58:51.810Z,100551.80
2022-11-29T06:01:31.857Z,100547.00
2022-11-29T06:04:14.774Z,100552.00
2022-11-29T06:06:53.926Z,100557.60
2022-11-29T06:09:31.846Z,100552.40
2022-11-29T06:12:08.330Z,100559.60
2022-11-29T06:15:06.446Z,100564.80
2022-11-29T06:18:02.853Z,100565.00
2022-11-29T06:21:07.615Z,100566.00
2022-11-29T06:24:12.360Z,100567.40
2022-11-29T06:27:09.761Z,100573.80
2022-11-29T06:29:50.055Z,100577.80
2022-11-29T06:32:34.265Z,100577.00
2022-11-29T06:35:13.527Z,100579.00
2022-11-29T06:37:50.717Z,100588.60
2022-11-29T06:40:24.390Z,100590.60
2022-11-29T06:42:57.488Z,100587.00
2022-11-29T06:45:31.875Z,100596.40
2022-11-29T06:48:08.012Z,100592.60
2022-11-29T06:50:54.874Z,100589.00
2022-11-29T06:53:38.434Z,100594.80
2022-11-29T06:56:20.670Z,100598.20
2022-11-29T06:59:03.405Z,100598.80
2022-11-29T07:01:44.473Z,100599.60
2022-11-29T07:04:46.756Z,100604.20
2022-11-29T07:07:23.970Z,100605.00
2022-11-29T07:10:00.746Z,100610.00
2022-11-29T07:12:34.677Z,100602.40
2022-11-29T07:15:11.022Z,100601.40
2022-11-29T07:17:56.260Z,100602.80
2022-11-29T07:20:38.158Z,100607.60
2022-11-29T07:23:26.714Z,100611.00
2022-11-29T07:26:16.893Z,100611.20
2022-11-29T07:29:10.708Z,100610.00
2022-11-29T07:31:57.171Z,100605.40
2022-11-29T07:34:37.418Z,100603.60
2022-11-29T07:37:21.473Z,100600.60
2022-11-29T07:40:04.170Z,100604.00
2022-11-29T07:42:49.891Z,100606.00
2022-11-29T07:45:28.938Z,100609.60
2022-11-29T07:48:01.704Z,100608.00
2022-11-29T07:50:36.402Z,100610.60
2022-11-29T07:53:10.578Z,100612.60
2022-11-29T07:55:43.130Z,100614.40
2022-11-29T07:58:18.122Z,100609.60
2022-11-29T08:00:50.809Z,100613.60
2022-11-29T08:03:23.352Z,100613.60
2022-11-29T08:05:56.124Z,100622.60
2022-11-29T08:08:28.681Z,100620.60
2022-11-29T08:11:01.582Z,100626.00
2022-11-29T08:13:34.157Z,100620.80
2022-11-29T08:16:06.846Z,100619.40
2022-11-29T08:18:40.415Z,100624.00
2022-11-29T08:21:18.093Z,100627.40
2022-11-29T08:23:52.148Z,100625.00
2022-11-29T08:26:29.827Z,100630.40
2022-11-29T08:29:04.152Z,100628.80
2022-11-29T08:31:36.883Z,100627.60
2022-11-29T08:34:11.520Z,100630.00
2022-11-29T08:36:43.955Z,100635.80
2022-11-29T08:39:16.611Z,100636.80
2022-11-29T08:41:49.732Z,100640.40
2022-11-29T08:44:22.420Z,100634.00
2022-11-29T08:47:12.656Z,100637.80
2022-11-29T08:50:00.063Z,100631.60
2022-11-29T08:52:51.443Z,100638.40
2022-11-29T08:55:26.453Z,100640.80
2022-11-29T08:58:04.462Z,100646.00
2022-11-29T09:00:38.054Z,100641.00
2022-11-29T09:03:25.236Z,100642.40
2022-11-29T09:05:57.805Z,100646.60
2022-11-29T09:08:30.338Z,100647.20
2022-11-29T09:11:08.040Z,100649.60
2022-11-29T09:13:41.024Z,100649.00
2022-11-29T09:16:18.101Z,100651.40
2022-11-29T09:18:52.088Z,100654.40
2022-11-29T09:21:26.547Z,100652.20
2022-11-29T09:24:02.877Z,100648.00
2022-11-29T09:26:40.825Z,100653.80
2022-11-29T09:29:13.636Z,100652.80
2022-11-29T09:31:46.561Z,100657.80
2022-11-29T09:34:19.929Z,100662.20
2022-11-29T09:36:52.491Z,100660.20
2022-11-29T09:39:25.276Z,100651.60
2022-11-29T09:42:36.225Z,100654.60
2022-11-29T09:45:16.825Z,100656.40
2022-11-29T09:48:13.357Z,100658.00
2022-11-29T09:50:53.352Z,100654.20
2022-11-29T09:53:43.747Z,100655.60
2022-11-29T09:56:29.804Z,100659.80
2022-11-29T09:59:06.918Z,100658.60
2022-11-29T10:01:44.165Z,100658.60
2022-11-29T10:04:24.009Z,100659.20
2022-11-29T10:07:07.401Z,100659.80
2022-11-29T10:09:46.119Z,100662.00
2022-11-29T10:12:23.137Z,100662.20
2022-11-29T10:15:03.776Z,100662.60
2022-11-29T10:17:42.845Z,100663.60
2022-11-29T10:20:20.994Z,100661.40
2022-11-29T10:22:56.995Z,100659.20
2022-11-29T10:25:35.087Z,100661.60
2022-11-29T10:28:14.567Z,100657.60
2022-11-29T10:30:48.476Z,100659.20
2022-11-29T10:33:26.527Z,100661.00
2022-11-29T10:36:04.271Z,100656.40
2022-11-29T10:38:36.932Z,100654.20
2022-11-29T10:41:14.719Z,100651.40
2022-11-29T10:43:47.616Z,100653.00
2022-11-29T10:46:29.995Z,100652.40
2022-11-29T10:49:06.535Z,100656.60
2022-11-29T10:51:39.349Z,100656.40
2022-11-29T10:54:28.423Z,100655.20
2022-11-29T10:57:02.315Z,100653.80
2022-11-29T10:59:35.113Z,100647.60
2022-11-29T11:02:16.720Z,100650.40
2022-11-29T11:04:50.329Z,100649.60
2022-11-29T11:07:33.412Z,100649.40
2022-11-29T11:10:23.289Z,100648.20
2022-11-29T11:13:08.666Z,100648.20
2022-11-29T11:15:42.059Z,100643.60
2022-11-29T11:18:25.618Z,100641.00
2022-11-29T11:21:02.137Z,100642.40
2022-11-29T11:23:42.344Z,100642.00
2022-11-29T11:26:17.374Z,100641.20
2022-11-29T11:28:57.025Z,100640.40
2022-11-29T11:31:35.531Z,100643.80
2022-11-29T11:34:34.512Z,100641.00
2022-11-29T11:37:26.484Z,100645.00
2022-11-29T11:40:01.635Z,100643.80
2022-11-29T11:42:39.762Z,100643.00
2022-11-29T11:45:32.516Z,100642.80
2022-11-29T11:48:12.899Z,100643.20
2022-11-29T11:50:52.167Z,100650.80
2022-11-29T11:53:28.901Z,100650.60
2022-11-29T11:56:05.490Z,100651.20
2022-11-29T11:58:41.312Z,100653.60
2022-11-29T12:01:30.503Z,100655.80
2022-11-29T12:04:13.086Z,100657.20
2022-11-29T12:06:53.471Z,100663.00
2022-11-29T12:09:36.453Z,100665.40
2022-11-29T12:12:20.926Z,100668.40
2022-11-29T12:15:00.945Z,100668.40
2022-11-29T12:17:39.364Z,100669.40
2022-11-29T12:20:29.092Z,100670.00
2022-11-29T12:23:23.072Z,100671.60
2022-11-29T12:26:00.435Z,100671.00
2022-11-29T12:28:36.500Z,100666.40
2022-11-29T12:31:24.305Z,100672.40
2022-11-29T12:34:11.307Z,100667.40
2022-11-29T12:36:53.288Z,100665.40
2022-11-29T12:39:57.111Z,100664.00
2022-11-29T12:42:47.662Z,100660.60
2022-11-29T12:45:38.495Z,100664.60
2022-11-29T12:48:18.954Z,100659.00
2022-11-29T12:51:02.927Z,100664.80
2022-11-29T12:53:55.282Z,100666.80
2022-11-29T12:56:37.179Z,100671.40
2022-11-29T12:59:32.788Z,100671.20
2022-11-29T13:02:27.375Z,100669.00
2022-11-29T13:05:07.802Z,100678.40
2022-11-29T13:07:52.087Z,100680.40
2022-11-29T13:10:34.584Z,100682.80
2022-11-29T13:13:21.051Z,100683.60
2022-11-29T13:16:02.583Z,100685.20
2022-11-29T13:18:43.200Z,100682.00
2022-11-29T13:21:20.425Z,100688.20
2022-11-29T13:24:08.241Z,100690.80
2022-11-29T13:26:43.296Z,100692.00
2022-11-29T13:29:19.859Z,100688.60
2022-11-29T13:31:53.111Z,100693.60
2022-11-29T13:34:31.465Z,100694.80
2022-11-29T13:37:19.148Z,100702.80
2022-11-29T13:40:08.160Z,100689.60
2022-11-29T13:42:48.010Z,100697.00
2022-11-29T13:45:27.625Z,100706.20
2022-11-29T13:48:02.069Z,100705.60
2022-11-29T13:50:45.090Z,100710.60
2022-11-29T13:53:21.798Z,100703.60
2022-11-29T13:56:01.929Z,100711.80
2022-11-29T13:58:42.439Z,100711.00
2022-11-29T14:01:15.054Z,100717.00
2022-11-29T14:03:59.768Z,100718.60
2022-11-29T14:06:39.318Z,100716.80
2022-11-29T14:09:34.397Z,100725.60
2022-11-29T14:12:26.502Z,100725.80
2022-11-29T14:15:05.681Z,100732.20
2022-11-29T14:17:53.654Z,100737.40
2022-11-29T14:23:41.844Z,100740.20
2022-11-29T14:42:18.919Z,100751.40
2022-11-29T14:44:56.183Z,100748.80
2022-11-29T14:47:33.883Z,100755.20
2022-11-29T15:00:20.568Z,100764.00
2022-11-29T15:02:57.631Z,100765.60
2022-11-29T15:05:37.430Z,100770.00
2022-11-29T15:08:19.079Z,100766.60
2022-11-29T15:10:58.416Z,100769.60
2022-11-29T15:13:34.875Z,100771.60
2022-11-29T15:16:36.983Z,100776.60
2022-11-29T15:19:55.357Z,100784.40
2022-11-29T15:22:35.295Z,100784.40
2022-11-29T15:25:16.277Z,100787.80
2022-11-29T15:27:57.744Z,100793.20
2022-11-29T15:30:38.493Z,100790.20
2022-11-29T15:33:22.776Z,100785.40
2022-11-29T15:35:57.815Z,100795.60
2022-11-29T15:38:30.643Z,100790.00
2022-11-29T15:41:03.541Z,100791.80
2022-11-29T15:43:40.297Z,100792.40
2022-11-29T15:46:23.114Z,100791.80
2022-11-29T15:48:55.937Z,100796.00
2022-11-29T15:51:35.255Z,100796.00
2022-11-29T15:54:13.785Z,100797.40
2022-11-29T15:56:52.057Z,100802.20
2022-11-29T15:59:34.985Z,100803.20
2022-11-29T16:02:17.273Z,100809.00
2022-11-29T16:04:53.518Z,100807.00
2022-11-29T16:07:29.279Z,100811.20
2022-11-29T16:10:11.284Z,100813.00
2022-11-29T16:12:57.864Z,100815.60
2022-11-29T16:15:34.373Z,100818.20
2022-11-29T16:18:15.551Z,100815.40
2022-11-29T16:21:01.729Z,100811.80
2022-11-29T16:23:41.430Z,100808.00
2022-11-29T16:26:20.185Z,100809.60
2022-11-29T16:28:56.443Z,100813.60
2022-11-29T16:31:36.929Z,100816.00
2022-11-29T16:34:15.889Z,100813.80
2022-11-29T16:36:48.657Z,100813.80
2022-11-29T16:39:26.315Z,100818.20
2022-11-29T16:42:20.524Z,100819.20
2022-11-29T16:45:07.675Z,100819.60
2022-11-29T16:47:58.264Z,100826.60
2022-11-29T16:50:32.637Z,100831.60
2022-11-29T16:53:38.201Z,100834.60
2022-11-29T16:56:15.058Z,100831.20
2022-11-29T16:59:16.928Z,100832.80
2022-11-29T17:01:46.101Z,100836.80
2022-11-29T17:04:23.728Z,100835.60
2022-11-29T17:06:58.758Z,100842.20
2022-11-29T17:09:34.478Z,100843.60
2022-11-29T17:12:07.546Z,100842.60
2022-11-29T17:14:40.511Z,100839.60
2022-11-29T17:17:18.881Z,100843.80
2022-11-29T17:19:51.945Z,100845.40
2022-11-29T17:22:24.823Z,100849.20
2022-11-29T17:24:57.731Z,100848.00
2022-11-29T17:27:30.523Z,100851.00
2022-11-29T17:30:03.686Z,100852.80
2022-11-29T17:32:38.151Z,100846.20
2022-11-29T17:35:12.021Z,100851.40
2022-11-29T17:37:44.746Z,100852.00
2022-11-29T17:40:19.033Z,100857.80
2022-11-29T17:42:52.053Z,100863.00
2022-11-29T17:45:24.994Z,100861.00
2022-11-29T17:47:59.927Z,100861.60
2022-11-29T17:50:32.915Z,100862.60
2022-11-29T17:53:06.411Z,100865.20
2022-11-29T17:55:39.661Z,100864.00
2022-11-29T17:58:14.102Z,100873.80
2022-11-29T18:00:47.058Z,100873.80
2022-11-29T18:03:20.437Z,100871.60
2022-11-29T18:05:53.824Z,100879.80
2022-11-29T18:08:26.586Z,100881.40
2022-11-29T18:11:08.308Z,100884.00
2022-11-29T18:13:41.517Z,100885.40
2022-11-29T18:16:17.117Z,100889.80
2022-11-29T18:18:54.905Z,100895.80
2022-11-29T18:21:28.055Z,100895.20
2022-11-29T18:24:04.748Z,100896.00
2022-11-29T18:26:38.797Z,100895.40
2022-11-29T18:29:12.568Z,100900.60
2022-11-29T18:31:47.420Z,100896.80
2022-11-29T18:34:20.170Z,100898.20
2022-11-29T18:36:53.273Z,100898.40
2022-11-29T18:39:26.179Z,100902.20
2022-11-29T18:41:59.097Z,100904.80
2022-11-29T18:44:31.902Z,100899.60
2022-11-29T18:47:06.114Z,100904.60
2022-11-29T18:49:38.987Z,100906.60
2022-11-29T18:52:12.160Z,100903.80
2022-11-29T18:54:45.471Z,100910.00
2022-11-29T18:57:18.462Z,100914.40
2022-11-29T18:59:51.314Z,100915.40
2022-11-29T19:02:24.086Z,100924.40
2022-11-29T19:04:57.233Z,100926.40
2022-11-29T19:07:31.599Z,100923.60
2022-11-29T19:10:04.670Z,100921.60
2022-11-29T19:12:37.562Z,100929.00
2022-11-29T19:15:12.718Z,100929.20
2022-11-29T19:17:45.510Z,100930.60
2022-11-29T19:20:18.760Z,100933.60
2022-11-29T19:22:53.848Z,100936.00
2022-11-29T19:25:30.453Z,100934.80
2022-11-29T19:28:03.231Z,100937.60
2022-11-29T19:30:37.015Z,100940.20
2022-11-29T19:33:09.958Z,100949.60
2022-11-29T19:35:42.985Z,100950.80
2022-11-29T19:38:17.072Z,100950.80
2022-11-29T19:40:50.135Z,100950.40
2022-11-29T19:43:22.959Z,100953.60
2022-11-29T19:45:55.844Z,100955.40
2022-11-29T19:48:28.980Z,100959.20
2022-11-29T19:51:04.274Z,100959.00
2022-11-29T19:53:37.739Z,100960.20
2022-11-29T19:56:13.736Z,100958.00
2022-11-29T19:58:46.855Z,100963.20
2022-11-29T20:01:28.126Z,100959.40
2022-11-29T20:04:02.326Z,100966.80
2022-11-29T20:06:35.454Z,100959.60
2022-11-29T20:09:09.178Z,100961.00
2022-11-29T20:11:41.996Z,100961.00
2022-11-29T20:14:16.970Z,100959.60
2022-11-29T20:16:49.828Z,100959.40
2022-11-29T20:19:22.771Z,100963.60
2022-11-29T20:21:55.656Z,100964.20
2022-11-29T20:24:30.410Z,100969.20
2022-11-29T20:27:05.386Z,100965.40
2022-11-29T20:29:38.127Z,100972.00
2022-11-29T20:32:11.223Z,100967.60
2022-11-29T20:34:48.144Z,100974.00
2022-11-29T20:37:39.380Z,100975.80
2022-11-29T20:40:21.320Z,100974.40
2022-11-29T20:43:13.158Z,100968.00
2022-11-29T20:45:47.181Z,100973.20
2022-11-29T20:48:24.040Z,100973.40
2022-11-29T20:51:01.256Z,100972.80
2022-11-29T20:53:40.349Z,100979.40
2022-11-29T20:56:13.955Z,100979.00
2022-11-29T20:58:46.733Z,100981.40
2022-11-29T21:01:19.651Z,100992.80
2022-11-29T21:03:52.474Z,100985.60
2022-11-29T21:06:25.247Z,100993.20
2022-11-29T21:08:59.198Z,100992.00
2022-11-29T21:11:33.210Z,100994.40
2022-11-29T21:14:09.273Z,100994.20
2022-11-29T21:16:43.034Z,101000.60
2022-11-29T21:19:21.696Z,101007.00
2022-11-29T21:22:07.120Z,101004.00
2022-11-29T21:24:49.070Z,100997.80
2022-11-29T21:27:30.125Z,100995.20
2022-11-29T21:30:05.832Z,100998.20
2022-11-29T21:32:40.254Z,100992.80
2022-11-29T21:35:13.588Z,100991.20
2022-11-29T21:37:47.222Z,100987.20
2022-11-29T21:40:20.279Z,100985.40
2022-11-29T21:42:53.135Z,100986.60
2022-11-29T21:45:28.840Z,100992.20
2022-11-29T21:48:03.741Z,100999.60
2022-11-29T21:50:36.485Z,101001.80
2022-11-29T21:53:09.408Z,101003.60
2022-11-29T21:55:42.216Z,101006.20
2022-11-29T21:58:14.921Z,101005.60
2022-11-29T22:00:47.887Z,101007.60
2022-11-29T22:03:20.782Z,101009.00
2022-11-29T22:05:53.774Z,101006.40
2022-11-29T22:08:26.683Z,101005.60
2022-11-29T22:11:07.381Z,101006.60
2022-11-29T22:14:01.161Z,101014.40
2022-11-29T22:16:34.080Z,101007.40
2022-11-29T22:19:06.970Z,101010.60
2022-11-29T22:21:39.940Z,101010.60
2022-11-29T22:24:14.359Z,101009.80
2022-11-29T22:26:47.933Z,101009.80
2022-11-29T22:29:21.184Z,101015.40
2022-11-29T22:31:56.228Z,101015.80
2022-11-29T22:34:29.439Z,101013.80
2022-11-29T22:37:02.185Z,101010.20
2022-11-29T22:39:34.900Z,101012.80
2022-11-29T22:42:07.947Z,101011.00
2022-11-29T22:44:40.766Z,101012.20
2022-11-29T22:47:13.607Z,101011.80
2022-11-29T22:49:46.362Z,101014.00
2022-11-29T22:52:19.222Z,101016.60
2022-11-29T22:54:51.959Z,101024.00
2022-11-29T22:57:24.747Z,101022.40
2022-11-29T22:59:57.618Z,101021.60
2022-11-29T23:02:30.604Z,101023.60
2022-11-29T23:05:03.576Z,101014.80
2022-11-29T23:07:36.419Z,101012.80
2022-11-29T23:10:11.548Z,101011.00
2022-11-29T23:12:44.766Z,101008.00
2022-11-29T23:15:17.742Z,101009.20
2022-11-29T23:17:50.588Z,101011.20
2022-11-29T23:20:23.385Z,101011.20
2022-11-29T23:22:56.855Z,101016.80
2022-11-29T23:25:30.160Z,101012.80
2022-11-29T23:28:03.031Z,101017.80
2022-11-29T23:30:36.054Z,101012.00
2022-11-29T23:33:08.917Z,101018.40
2022-11-29T23:35:41.637Z,101014.00
2022-11-29T23:38:14.717Z,101009.80
2022-11-29T23:40:47.845Z,101012.40
2022-11-29T23:43:20.815Z,101011.40
2022-11-29T23:45:53.886Z,101014.80
2022-11-29T23:48:27.391Z,101012.40
2022-11-29T23:51:00.176Z,101009.80
2022-11-29T23:53:33.506Z,101011.80
2022-11-29T23:56:08.867Z,101019.20
2022-11-29T23:58:41.961Z,101016.80
